sensor_id;sensor_type;location;lat;lon;timestamp;P1;durP1;ratioP1;P2;durP2;ratioP2
65469;SDS011;52067;50.710;14.492;2023-03-24T00:01:51;25.05;;;9.98;;
65469;SDS011;52067;50.710;14.492;2023-03-24T00:04:17;22.88;;;10.45;;
65469;SDS011;52067;50.710;14.492;2023-03-24T00:06:43;21.88;;;9.98;;
65469;SDS011;52067;50.710;14.492;2023-03-24T00:09:08;23.77;;;11.02;;
65469;SDS011;52067;50.710;14.492;2023-03-24T00:11:34;24.65;;;10.93;;
65469;SDS011;52067;50.710;14.492;2023-03-24T00:14:00;24.33;;;11.63;;
65469;SDS011;52067;50.710;14.492;2023-03-24T00:16:27;23.60;;;11.05;;
65469;SDS011;52067;50.710;14.492;2023-03-24T00:18:53;30.75;;;11.15;;
65469;SDS011;52067;50.710;14.492;2023-03-24T00:21:18;31.45;;;14.27;;
65469;SDS011;52067;50.710;14.492;2023-03-24T00:23:52;26.02;;;12.38;;
65469;SDS011;52067;50.710;14.492;2023-03-24T00:26:22;106.65;;;84.20;;
65469;SDS011;52067;50.710;14.492;2023-03-24T00:28:49;39.47;;;20.10;;
65469;SDS011;52067;50.710;14.492;2023-03-24T00:31:15;41.13;;;19.23;;
65469;SDS011;52067;50.710;14.492;2023-03-24T00:33:42;22.92;;;10.52;;
65469;SDS011;52067;50.710;14.492;2023-03-24T00:36:09;29.35;;;14.93;;
65469;SDS011;52067;50.710;14.492;2023-03-24T00:38:39;17.95;;;8.77;;
65469;SDS011;52067;50.710;14.492;2023-03-24T00:41:06;50.30;;;37.03;;
65469;SDS011;52067;50.710;14.492;2023-03-24T00:43:33;53.88;;;40.58;;
65469;SDS011;52067;50.710;14.492;2023-03-24T00:46:02;37.17;;;17.17;;
65469;SDS011;52067;50.710;14.492;2023-03-24T00:48:30;35.35;;;19.08;;
65469;SDS011;52067;50.710;14.492;2023-03-24T00:50:56;37.38;;;23.50;;
65469;SDS011;52067;50.710;14.492;2023-03-24T00:53:21;32.20;;;21.02;;
65469;SDS011;52067;50.710;14.492;2023-03-24T00:55:49;34.00;;;23.48;;
65469;SDS011;52067;50.710;14.492;2023-03-24T00:58:16;23.65;;;11.98;;
65469;SDS011;52067;50.710;14.492;2023-03-24T01:00:44;22.17;;;11.95;;
65469;SDS011;52067;50.710;14.492;2023-03-24T01:03:10;25.02;;;13.45;;
65469;SDS011;52067;50.710;14.492;2023-03-24T01:05:36;27.83;;;12.10;;
65469;SDS011;52067;50.710;14.492;2023-03-24T01:08:02;27.40;;;17.15;;
65469;SDS011;52067;50.710;14.492;2023-03-24T01:10:29;29.77;;;16.38;;
65469;SDS011;52067;50.710;14.492;2023-03-24T01:12:56;40.58;;;24.30;;
65469;SDS011;52067;50.710;14.492;2023-03-24T01:15:25;29.20;;;15.10;;
65469;SDS011;52067;50.710;14.492;2023-03-24T01:17:55;24.13;;;12.40;;
65469;SDS011;52067;50.710;14.492;2023-03-24T01:20:22;32.85;;;17.05;;
65469;SDS011;52067;50.710;14.492;2023-03-24T01:22:48;31.33;;;16.42;;
65469;SDS011;52067;50.710;14.492;2023-03-24T01:25:15;31.92;;;14.43;;
65469;SDS011;52067;50.710;14.492;2023-03-24T01:27:43;19.63;;;9.77;;
65469;SDS011;52067;50.710;14.492;2023-03-24T01:30:13;15.88;;;8.25;;
65469;SDS011;52067;50.710;14.492;2023-03-24T01:32:43;12.32;;;6.10;;
65469;SDS011;52067;50.710;14.492;2023-03-24T01:35:09;20.73;;;13.73;;
65469;SDS011;52067;50.710;14.492;2023-03-24T01:37:35;23.02;;;20.00;;
65469;SDS011;52067;50.710;14.492;2023-03-24T01:40:02;22.05;;;12.10;;
65469;SDS011;52067;50.710;14.492;2023-03-24T01:42:31;41.28;;;21.88;;
65469;SDS011;52067;50.710;14.492;2023-03-24T01:44:58;28.92;;;12.60;;
65469;SDS011;52067;50.710;14.492;2023-03-24T01:47:25;27.83;;;11.45;;
65469;SDS011;52067;50.710;14.492;2023-03-24T01:49:57;26.02;;;10.85;;
65469;SDS011;52067;50.710;14.492;2023-03-24T01:52:28;23.50;;;10.52;;
65469;SDS011;52067;50.710;14.492;2023-03-24T01:54:57;28.33;;;18.00;;
65469;SDS011;52067;50.710;14.492;2023-03-24T01:57:34;23.27;;;9.68;;
65469;SDS011;52067;50.710;14.492;2023-03-24T02:00:06;23.90;;;10.93;;
65469;SDS011;52067;50.710;14.492;2023-03-24T02:02:34;22.95;;;9.60;;
65469;SDS011;52067;50.710;14.492;2023-03-24T02:05:03;30.00;;;12.73;;
65469;SDS011;52067;50.710;14.492;2023-03-24T02:10:04;23.70;;;10.05;;
65469;SDS011;52067;50.710;14.492;2023-03-24T02:12:33;30.10;;;14.00;;
65469;SDS011;52067;50.710;14.492;2023-03-24T02:14:59;34.90;;;19.05;;
65469;SDS011;52067;50.710;14.492;2023-03-24T02:39:16;24.35;;;9.50;;
65469;SDS011;52067;50.710;14.492;2023-03-24T02:42:06;19.27;;;8.13;;
65469;SDS011;52067;50.710;14.492;2023-03-24T02:53:14;13.23;;;5.93;;
65469;SDS011;52067;50.710;14.492;2023-03-24T02:55:51;12.52;;;5.35;;
65469;SDS011;52067;50.710;14.492;2023-03-24T03:00:52;17.30;;;8.75;;
65469;SDS011;52067;50.710;14.492;2023-03-24T03:03:27;16.42;;;6.90;;
65469;SDS011;52067;50.710;14.492;2023-03-24T03:08:39;14.88;;;7.20;;
65469;SDS011;52067;50.710;14.492;2023-03-24T03:11:06;10.05;;;6.20;;
65469;SDS011;52067;50.710;14.492;2023-03-24T03:13:37;19.63;;;8.93;;
65469;SDS011;52067;50.710;14.492;2023-03-24T03:16:07;17.27;;;8.80;;
65469;SDS011;52067;50.710;14.492;2023-03-24T03:18:45;15.55;;;8.18;;
65469;SDS011;52067;50.710;14.492;2023-03-24T03:21:17;21.45;;;10.02;;
65469;SDS011;52067;50.710;14.492;2023-03-24T03:26:33;18.13;;;7.93;;
65469;SDS011;52067;50.710;14.492;2023-03-24T03:29:00;15.52;;;8.38;;
65469;SDS011;52067;50.710;14.492;2023-03-24T03:31:39;14.20;;;8.25;;
65469;SDS011;52067;50.710;14.492;2023-03-24T03:37:18;14.18;;;7.00;;
65469;SDS011;52067;50.710;14.492;2023-03-24T03:40:00;9.55;;;5.55;;
65469;SDS011;52067;50.710;14.492;2023-03-24T03:42:31;11.88;;;6.55;;
65469;SDS011;52067;50.710;14.492;2023-03-24T03:44:57;13.23;;;6.88;;
65469;SDS011;52067;50.710;14.492;2023-03-24T03:47:22;12.80;;;6.75;;
65469;SDS011;52067;50.710;14.492;2023-03-24T03:49:48;11.57;;;6.38;;
65469;SDS011;52067;50.710;14.492;2023-03-24T03:52:14;15.27;;;7.20;;
65469;SDS011;52067;50.710;14.492;2023-03-24T03:54:40;13.80;;;7.00;;
65469;SDS011;52067;50.710;14.492;2023-03-24T03:57:07;14.15;;;6.82;;
65469;SDS011;52067;50.710;14.492;2023-03-24T03:59:35;16.48;;;6.93;;
65469;SDS011;52067;50.710;14.492;2023-03-24T04:08:06;14.18;;;6.35;;
65469;SDS011;52067;50.710;14.492;2023-03-24T04:18:52;17.13;;;7.68;;
65469;SDS011;52067;50.710;14.492;2023-03-24T04:21:44;21.00;;;10.40;;
65469;SDS011;52067;50.710;14.492;2023-03-24T04:36:21;21.23;;;10.20;;
65469;SDS011;52067;50.710;14.492;2023-03-24T04:38:52;21.75;;;10.27;;
65469;SDS011;52067;50.710;14.492;2023-03-24T04:41:21;14.10;;;7.20;;
65469;SDS011;52067;50.710;14.492;2023-03-24T04:43:49;14.60;;;7.00;;
65469;SDS011;52067;50.710;14.492;2023-03-24T04:46:16;18.13;;;7.30;;
65469;SDS011;52067;50.710;14.492;2023-03-24T04:48:45;13.38;;;6.72;;
65469;SDS011;52067;50.710;14.492;2023-03-24T04:51:12;14.23;;;6.85;;
65469;SDS011;52067;50.710;14.492;2023-03-24T04:53:39;15.15;;;6.60;;
65469;SDS011;52067;50.710;14.492;2023-03-24T04:58:58;15.35;;;7.60;;
65469;SDS011;52067;50.710;14.492;2023-03-24T05:01:25;17.65;;;6.72;;
65469;SDS011;52067;50.710;14.492;2023-03-24T05:03:54;19.00;;;8.73;;
65469;SDS011;52067;50.710;14.492;2023-03-24T05:06:20;17.85;;;8.45;;
65469;SDS011;52067;50.710;14.492;2023-03-24T05:08:46;16.63;;;7.65;;
65469;SDS011;52067;50.710;14.492;2023-03-24T05:11:11;15.98;;;8.55;;
65469;SDS011;52067;50.710;14.492;2023-03-24T05:13:37;17.27;;;8.35;;
65469;SDS011;52067;50.710;14.492;2023-03-24T05:16:02;22.88;;;9.60;;
65469;SDS011;52067;50.710;14.492;2023-03-24T05:18:28;32.20;;;12.25;;
65469;SDS011;52067;50.710;14.492;2023-03-24T05:20:53;33.15;;;12.07;;
65469;SDS011;52067;50.710;14.492;2023-03-24T05:23:19;55.70;;;17.90;;
65469;SDS011;52067;50.710;14.492;2023-03-24T05:25:45;46.97;;;16.38;;
65469;SDS011;52067;50.710;14.492;2023-03-24T05:28:11;34.40;;;13.75;;
65469;SDS011;52067;50.710;14.492;2023-03-24T05:30:36;26.27;;;11.30;;
65469;SDS011;52067;50.710;14.492;2023-03-24T05:33:02;13.75;;;7.20;;
65469;SDS011;52067;50.710;14.492;2023-03-24T05:35:27;10.90;;;6.22;;
65469;SDS011;52067;50.710;14.492;2023-03-24T05:37:53;9.73;;;5.97;;
65469;SDS011;52067;50.710;14.492;2023-03-24T05:40:18;13.27;;;6.50;;
65469;SDS011;52067;50.710;14.492;2023-03-24T05:42:43;10.30;;;5.20;;
65469;SDS011;52067;50.710;14.492;2023-03-24T05:45:09;10.88;;;6.03;;
65469;SDS011;52067;50.710;14.492;2023-03-24T05:47:36;8.18;;;5.28;;
65469;SDS011;52067;50.710;14.492;2023-03-24T05:50:02;10.48;;;5.35;;
65469;SDS011;52067;50.710;14.492;2023-03-24T05:52:28;10.52;;;5.95;;
65469;SDS011;52067;50.710;14.492;2023-03-24T05:54:53;11.90;;;6.75;;
65469;SDS011;52067;50.710;14.492;2023-03-24T05:57:19;27.05;;;11.30;;
65469;SDS011;52067;50.710;14.492;2023-03-24T05:59:45;37.60;;;15.88;;
65469;SDS011;52067;50.710;14.492;2023-03-24T06:02:10;22.10;;;10.27;;
65469;SDS011;52067;50.710;14.492;2023-03-24T06:04:36;23.95;;;11.73;;
65469;SDS011;52067;50.710;14.492;2023-03-24T06:07:02;24.95;;;11.52;;
65469;SDS011;52067;50.710;14.492;2023-03-24T06:09:28;20.80;;;8.63;;
65469;SDS011;52067;50.710;14.492;2023-03-24T06:11:57;29.55;;;14.70;;
65469;SDS011;52067;50.710;14.492;2023-03-24T06:14:23;30.38;;;14.07;;
65469;SDS011;52067;50.710;14.492;2023-03-24T06:16:49;29.13;;;13.52;;
65469;SDS011;52067;50.710;14.492;2023-03-24T06:19:15;32.45;;;15.40;;
65469;SDS011;52067;50.710;14.492;2023-03-24T06:21:41;35.85;;;16.45;;
65469;SDS011;52067;50.710;14.492;2023-03-24T06:24:08;29.52;;;14.68;;
65469;SDS011;52067;50.710;14.492;2023-03-24T06:26:38;30.30;;;15.82;;
65469;SDS011;52067;50.710;14.492;2023-03-24T06:29:06;29.90;;;15.02;;
65469;SDS011;52067;50.710;14.492;2023-03-24T06:31:31;22.17;;;10.90;;
65469;SDS011;52067;50.710;14.492;2023-03-24T06:33:58;25.25;;;12.93;;
65469;SDS011;52067;50.710;14.492;2023-03-24T06:36:24;38.45;;;18.30;;
65469;SDS011;52067;50.710;14.492;2023-03-24T06:38:50;36.78;;;19.30;;
65469;SDS011;52067;50.710;14.492;2023-03-24T06:41:16;37.97;;;19.35;;
65469;SDS011;52067;50.710;14.492;2023-03-24T06:43:41;39.58;;;20.80;;
65469;SDS011;52067;50.710;14.492;2023-03-24T06:46:07;36.20;;;17.65;;
65469;SDS011;52067;50.710;14.492;2023-03-24T06:48:33;35.75;;;18.83;;
65469;SDS011;52067;50.710;14.492;2023-03-24T06:50:59;36.13;;;18.95;;
65469;SDS011;52067;50.710;14.492;2023-03-24T06:53:25;48.92;;;24.20;;
65469;SDS011;52067;50.710;14.492;2023-03-24T06:55:51;43.88;;;22.58;;
65469;SDS011;52067;50.710;14.492;2023-03-24T06:58:16;50.05;;;22.17;;
65469;SDS011;52067;50.710;14.492;2023-03-24T07:00:45;40.35;;;18.42;;
65469;SDS011;52067;50.710;14.492;2023-03-24T07:03:10;46.90;;;18.50;;
65469;SDS011;52067;50.710;14.492;2023-03-24T07:05:41;39.55;;;15.30;;
65469;SDS011;52067;50.710;14.492;2023-03-24T07:08:09;39.55;;;16.77;;
65469;SDS011;52067;50.710;14.492;2023-03-24T07:10:36;41.42;;;17.38;;
65469;SDS011;52067;50.710;14.492;2023-03-24T07:13:03;67.72;;;18.67;;
65469;SDS011;52067;50.710;14.492;2023-03-24T07:15:29;42.40;;;16.13;;
65469;SDS011;52067;50.710;14.492;2023-03-24T07:17:54;48.50;;;14.38;;
65469;SDS011;52067;50.710;14.492;2023-03-24T07:20:20;17.92;;;6.55;;
65469;SDS011;52067;50.710;14.492;2023-03-24T07:22:46;13.48;;;6.40;;
65469;SDS011;52067;50.710;14.492;2023-03-24T07:25:11;13.00;;;6.15;;
65469;SDS011;52067;50.710;14.492;2023-03-24T07:27:38;13.45;;;5.93;;
65469;SDS011;52067;50.710;14.492;2023-03-24T07:30:05;9.38;;;6.00;;
65469;SDS011;52067;50.710;14.492;2023-03-24T07:32:31;40.38;;;10.25;;
65469;SDS011;52067;50.710;14.492;2023-03-24T07:34:59;33.80;;;10.45;;
65469;SDS011;52067;50.710;14.492;2023-03-24T07:37:25;26.63;;;9.23;;
65469;SDS011;52067;50.710;14.492;2023-03-24T07:39:50;35.75;;;12.88;;
65469;SDS011;52067;50.710;14.492;2023-03-24T07:42:16;25.13;;;10.52;;
65469;SDS011;52067;50.710;14.492;2023-03-24T07:44:41;21.45;;;9.98;;
65469;SDS011;52067;50.710;14.492;2023-03-24T07:47:07;20.02;;;6.85;;
65469;SDS011;52067;50.710;14.492;2023-03-24T07:49:32;15.32;;;7.72;;
65469;SDS011;52067;50.710;14.492;2023-03-24T07:51:57;18.38;;;7.53;;
65469;SDS011;52067;50.710;14.492;2023-03-24T07:54:23;18.42;;;7.85;;
65469;SDS011;52067;50.710;14.492;2023-03-24T07:56:49;17.85;;;7.43;;
65469;SDS011;52067;50.710;14.492;2023-03-24T07:59:14;53.70;;;18.80;;
65469;SDS011;52067;50.710;14.492;2023-03-24T08:01:41;93.95;;;30.58;;
65469;SDS011;52067;50.710;14.492;2023-03-24T08:04:08;109.40;;;37.97;;
65469;SDS011;52067;50.710;14.492;2023-03-24T08:06:36;102.40;;;36.50;;
65469;SDS011;52067;50.710;14.492;2023-03-24T08:09:01;65.00;;;23.88;;
65469;SDS011;52067;50.710;14.492;2023-03-24T08:11:26;48.38;;;19.88;;
65469;SDS011;52067;50.710;14.492;2023-03-24T08:13:52;32.83;;;14.18;;
65469;SDS011;52067;50.710;14.492;2023-03-24T08:16:17;23.30;;;10.95;;
65469;SDS011;52067;50.710;14.492;2023-03-24T08:18:43;13.52;;;6.50;;
65469;SDS011;52067;50.710;14.492;2023-03-24T08:21:08;14.32;;;6.95;;
65469;SDS011;52067;50.710;14.492;2023-03-24T08:23:33;13.15;;;6.88;;
65469;SDS011;52067;50.710;14.492;2023-03-24T08:26:00;8.63;;;4.10;;
65469;SDS011;52067;50.710;14.492;2023-03-24T08:28:26;9.82;;;4.47;;
65469;SDS011;52067;50.710;14.492;2023-03-24T08:30:52;7.03;;;4.22;;
65469;SDS011;52067;50.710;14.492;2023-03-24T08:33:17;8.80;;;4.72;;
65469;SDS011;52067;50.710;14.492;2023-03-24T08:35:43;7.45;;;4.30;;
65469;SDS011;52067;50.710;14.492;2023-03-24T08:38:11;6.85;;;4.72;;
65469;SDS011;52067;50.710;14.492;2023-03-24T08:40:38;9.20;;;5.15;;
65469;SDS011;52067;50.710;14.492;2023-03-24T08:43:05;9.93;;;6.00;;
65469;SDS011;52067;50.710;14.492;2023-03-24T08:45:32;8.38;;;5.25;;
65469;SDS011;52067;50.710;14.492;2023-03-24T08:47:59;5.45;;;3.30;;
65469;SDS011;52067;50.710;14.492;2023-03-24T08:50:27;6.97;;;3.83;;
65469;SDS011;52067;50.710;14.492;2023-03-24T08:52:55;6.90;;;3.83;;
65469;SDS011;52067;50.710;14.492;2023-03-24T08:55:21;6.93;;;3.80;;
65469;SDS011;52067;50.710;14.492;2023-03-24T08:57:47;4.97;;;3.53;;
65469;SDS011;52067;50.710;14.492;2023-03-24T09:00:14;8.40;;;4.40;;
65469;SDS011;52067;50.710;14.492;2023-03-24T09:02:44;7.55;;;4.60;;
65469;SDS011;52067;50.710;14.492;2023-03-24T09:05:12;6.60;;;4.45;;
65469;SDS011;52067;50.710;14.492;2023-03-24T09:07:39;10.00;;;4.88;;
65469;SDS011;52067;50.710;14.492;2023-03-24T09:10:05;8.90;;;4.57;;
65469;SDS011;52067;50.710;14.492;2023-03-24T09:12:32;8.65;;;5.13;;
65469;SDS011;52067;50.710;14.492;2023-03-24T09:14:58;8.18;;;4.53;;
65469;SDS011;52067;50.710;14.492;2023-03-24T09:17:23;5.35;;;3.80;;
65469;SDS011;52067;50.710;14.492;2023-03-24T09:19:49;6.82;;;3.00;;
65469;SDS011;52067;50.710;14.492;2023-03-24T09:22:14;7.13;;;3.60;;
65469;SDS011;52067;50.710;14.492;2023-03-24T09:24:40;7.07;;;3.67;;
65469;SDS011;52067;50.710;14.492;2023-03-24T09:27:05;7.15;;;3.00;;
65469;SDS011;52067;50.710;14.492;2023-03-24T09:29:31;6.70;;;2.92;;
65469;SDS011;52067;50.710;14.492;2023-03-24T09:31:56;3.95;;;2.92;;
65469;SDS011;52067;50.710;14.492;2023-03-24T09:34:23;4.80;;;2.50;;
65469;SDS011;52067;50.710;14.492;2023-03-24T09:36:49;8.35;;;5.55;;
65469;SDS011;52067;50.710;14.492;2023-03-24T09:39:15;11.20;;;6.10;;
65469;SDS011;52067;50.710;14.492;2023-03-24T09:41:41;6.13;;;2.80;;
65469;SDS011;52067;50.710;14.492;2023-03-24T09:44:24;4.63;;;3.05;;
65469;SDS011;52067;50.710;14.492;2023-03-24T09:46:59;5.30;;;3.05;;
65469;SDS011;52067;50.710;14.492;2023-03-24T09:49:29;5.88;;;3.22;;
65469;SDS011;52067;50.710;14.492;2023-03-24T09:52:03;6.78;;;2.95;;
65469;SDS011;52067;50.710;14.492;2023-03-24T09:54:35;5.18;;;3.08;;
65469;SDS011;52067;50.710;14.492;2023-03-24T09:57:16;4.30;;;2.83;;
65469;SDS011;52067;50.710;14.492;2023-03-24T09:59:46;4.78;;;2.83;;
65469;SDS011;52067;50.710;14.492;2023-03-24T10:02:15;8.40;;;2.85;;
65469;SDS011;52067;50.710;14.492;2023-03-24T10:04:42;9.52;;;3.38;;
65469;SDS011;52067;50.710;14.492;2023-03-24T10:07:20;5.43;;;3.25;;
65469;SDS011;52067;50.710;14.492;2023-03-24T10:09:57;6.43;;;3.60;;
65469;SDS011;52067;50.710;14.492;2023-03-24T10:12:33;5.50;;;3.72;;
65469;SDS011;52067;50.710;14.492;2023-03-24T10:25:58;6.00;;;3.47;;
65469;SDS011;52067;50.710;14.492;2023-03-24T10:28:43;6.88;;;3.60;;
65469;SDS011;52067;50.710;14.492;2023-03-24T10:31:17;4.82;;;3.50;;
65469;SDS011;52067;50.710;14.492;2023-03-24T10:33:51;7.15;;;3.65;;
65469;SDS011;52067;50.710;14.492;2023-03-24T10:36:17;4.97;;;3.55;;
65469;SDS011;52067;50.710;14.492;2023-03-24T10:38:46;5.45;;;3.33;;
65469;SDS011;52067;50.710;14.492;2023-03-24T10:41:23;6.68;;;3.47;;
65469;SDS011;52067;50.710;14.492;2023-03-24T10:43:50;11.05;;;3.75;;
65469;SDS011;52067;50.710;14.492;2023-03-24T10:46:18;6.22;;;3.10;;
65469;SDS011;52067;50.710;14.492;2023-03-24T10:48:48;5.32;;;3.75;;
65469;SDS011;52067;50.710;14.492;2023-03-24T10:51:16;7.57;;;3.35;;
65469;SDS011;52067;50.710;14.492;2023-03-24T10:56:37;6.57;;;3.17;;
65469;SDS011;52067;50.710;14.492;2023-03-24T10:59:05;4.75;;;3.05;;
65469;SDS011;52067;50.710;14.492;2023-03-24T11:01:46;4.70;;;3.30;;
65469;SDS011;52067;50.710;14.492;2023-03-24T11:04:15;6.47;;;3.30;;
65469;SDS011;52067;50.710;14.492;2023-03-24T11:07:00;6.28;;;3.33;;
65469;SDS011;52067;50.710;14.492;2023-03-24T11:09:45;5.45;;;3.10;;
65469;SDS011;52067;50.710;14.492;2023-03-24T11:12:33;5.05;;;2.75;;
65469;SDS011;52067;50.710;14.492;2023-03-24T11:17:51;3.90;;;2.50;;
65469;SDS011;52067;50.710;14.492;2023-03-24T11:20:26;3.45;;;2.00;;
65469;SDS011;52067;50.710;14.492;2023-03-24T11:23:08;2.95;;;1.90;;
65469;SDS011;52067;50.710;14.492;2023-03-24T11:25:39;4.00;;;1.77;;
65469;SDS011;52067;50.710;14.492;2023-03-24T11:28:12;3.72;;;1.60;;
65469;SDS011;52067;50.710;14.492;2023-03-24T11:30:44;2.00;;;1.50;;
65469;SDS011;52067;50.710;14.492;2023-03-24T11:33:28;2.28;;;1.60;;
65469;SDS011;52067;50.710;14.492;2023-03-24T11:36:34;5.13;;;1.50;;
65469;SDS011;52067;50.710;14.492;2023-03-24T11:39:13;1.77;;;1.33;;
65469;SDS011;52067;50.710;14.492;2023-03-24T11:41:43;1.95;;;1.40;;
65469;SDS011;52067;50.710;14.492;2023-03-24T11:44:23;2.03;;;1.45;;
65469;SDS011;52067;50.710;14.492;2023-03-24T11:46:51;3.10;;;1.70;;
65469;SDS011;52067;50.710;14.492;2023-03-24T11:49:21;2.35;;;1.70;;
65469;SDS011;52067;50.710;14.492;2023-03-24T11:51:52;4.70;;;1.70;;
65469;SDS011;52067;50.710;14.492;2023-03-24T11:54:19;2.25;;;1.63;;
65469;SDS011;52067;50.710;14.492;2023-03-24T11:56:51;3.60;;;1.67;;
65469;SDS011;52067;50.710;14.492;2023-03-24T12:10:01;2.67;;;1.77;;
65469;SDS011;52067;50.710;14.492;2023-03-24T12:12:58;2.65;;;1.65;;
65469;SDS011;52067;50.710;14.492;2023-03-24T12:18:35;1.58;;;1.25;;
65469;SDS011;52067;50.710;14.492;2023-03-24T12:21:10;3.10;;;1.70;;
65469;SDS011;52067;50.710;14.492;2023-03-24T12:26:23;2.10;;;1.50;;
65469;SDS011;52067;50.710;14.492;2023-03-24T12:29:14;2.88;;;1.55;;
65469;SDS011;52067;50.710;14.492;2023-03-24T12:37:32;2.63;;;1.50;;
65469;SDS011;52067;50.710;14.492;2023-03-24T12:40:38;1.63;;;1.30;;
65469;SDS011;52067;50.710;14.492;2023-03-24T12:46:02;2.75;;;1.70;;
65469;SDS011;52067;50.710;14.492;2023-03-24T12:51:37;1.60;;;1.27;;
65469;SDS011;52067;50.710;14.492;2023-03-24T12:54:16;2.00;;;1.23;;
65469;SDS011;52067;50.710;14.492;2023-03-24T12:56:54;1.42;;;1.10;;
65469;SDS011;52067;50.710;14.492;2023-03-24T12:59:34;1.50;;;1.10;;
65469;SDS011;52067;50.710;14.492;2023-03-24T13:02:11;3.95;;;1.15;;
65469;SDS011;52067;50.710;14.492;2023-03-24T13:04:46;2.50;;;1.20;;
65469;SDS011;52067;50.710;14.492;2023-03-24T13:07:16;1.35;;;1.00;;
65469;SDS011;52067;50.710;14.492;2023-03-24T13:20:24;1.20;;;1.10;;
65469;SDS011;52067;50.710;14.492;2023-03-24T13:25:51;1.02;;;0.90;;
65469;SDS011;52067;50.710;14.492;2023-03-24T13:28:32;1.23;;;1.05;;
65469;SDS011;52067;50.710;14.492;2023-03-24T13:31:03;1.65;;;1.00;;
65469;SDS011;52067;50.710;14.492;2023-03-24T13:33:31;1.20;;;1.10;;
65469;SDS011;52067;50.710;14.492;2023-03-24T13:41:11;2.22;;;1.25;;
65469;SDS011;52067;50.710;14.492;2023-03-24T13:43:51;2.08;;;1.20;;
65469;SDS011;52067;50.710;14.492;2023-03-24T13:46:23;1.30;;;1.10;;
65469;SDS011;52067;50.710;14.492;2023-03-24T13:48:50;1.85;;;1.30;;
65469;SDS011;52067;50.710;14.492;2023-03-24T13:51:39;2.42;;;1.38;;
65469;SDS011;52067;50.710;14.492;2023-03-24T13:54:20;3.05;;;1.30;;
65469;SDS011;52067;50.710;14.492;2023-03-24T13:57:11;4.40;;;1.33;;
65469;SDS011;52067;50.710;14.492;2023-03-24T14:02:46;2.10;;;1.30;;
65469;SDS011;52067;50.710;14.492;2023-03-24T14:10:27;2.75;;;1.60;;
65469;SDS011;52067;50.710;14.492;2023-03-24T14:13:26;1.92;;;1.23;;
65469;SDS011;52067;50.710;14.492;2023-03-24T14:15:58;1.42;;;1.20;;
65469;SDS011;52067;50.710;14.492;2023-03-24T14:26:05;2.90;;;1.40;;
65469;SDS011;52067;50.710;14.492;2023-03-24T14:28:36;2.08;;;1.40;;
65469;SDS011;52067;50.710;14.492;2023-03-24T14:33:54;2.42;;;1.60;;
65469;SDS011;52067;50.710;14.492;2023-03-24T14:36:44;2.17;;;1.60;;
65469;SDS011;52067;50.710;14.492;2023-03-24T14:39:16;3.47;;;1.70;;
65469;SDS011;52067;50.710;14.492;2023-03-24T14:41:46;3.17;;;1.80;;
65469;SDS011;52067;50.710;14.492;2023-03-24T14:44:15;2.80;;;1.65;;
65469;SDS011;52067;50.710;14.492;2023-03-24T14:47:10;2.80;;;1.67;;
65469;SDS011;52067;50.710;14.492;2023-03-24T14:49:46;2.28;;;1.35;;
65469;SDS011;52067;50.710;14.492;2023-03-24T14:52:24;2.55;;;1.50;;
65469;SDS011;52067;50.710;14.492;2023-03-24T14:55:04;2.00;;;1.42;;
65469;SDS011;52067;50.710;14.492;2023-03-24T14:57:39;2.20;;;1.48;;
65469;SDS011;52067;50.710;14.492;2023-03-24T15:00:14;2.38;;;1.48;;
65469;SDS011;52067;50.710;14.492;2023-03-24T15:05:51;2.95;;;1.45;;
65469;SDS011;52067;50.710;14.492;2023-03-24T15:08:19;2.35;;;1.50;;
65469;SDS011;52067;50.710;14.492;2023-03-24T15:10:50;2.92;;;1.60;;
65469;SDS011;52067;50.710;14.492;2023-03-24T15:13:32;2.10;;;1.50;;
65469;SDS011;52067;50.710;14.492;2023-03-24T15:15:58;2.22;;;1.65;;
65469;SDS011;52067;50.710;14.492;2023-03-24T15:18:25;2.05;;;1.50;;
65469;SDS011;52067;50.710;14.492;2023-03-24T15:20:50;1.23;;;1.00;;
65469;SDS011;52067;50.710;14.492;2023-03-24T15:23:17;1.80;;;0.82;;
65469;SDS011;52067;50.710;14.492;2023-03-24T15:25:46;1.60;;;1.10;;
65469;SDS011;52067;50.710;14.492;2023-03-24T15:28:19;1.90;;;1.00;;
65469;SDS011;52067;50.710;14.492;2023-03-24T15:30:54;2.42;;;1.30;;
65469;SDS011;52067;50.710;14.492;2023-03-24T15:33:23;3.72;;;1.50;;
65469;SDS011;52067;50.710;14.492;2023-03-24T15:35:56;1.88;;;1.17;;
65469;SDS011;52067;50.710;14.492;2023-03-24T15:38:27;3.22;;;1.50;;
65469;SDS011;52067;50.710;14.492;2023-03-24T15:43:27;3.92;;;1.58;;
65469;SDS011;52067;50.710;14.492;2023-03-24T15:45:56;2.40;;;1.27;;
65469;SDS011;52067;50.710;14.492;2023-03-24T15:48:29;2.95;;;1.70;;
65469;SDS011;52067;50.710;14.492;2023-03-24T15:50:59;2.80;;;1.40;;
65469;SDS011;52067;50.710;14.492;2023-03-24T15:53:38;2.72;;;1.10;;
65469;SDS011;52067;50.710;14.492;2023-03-24T15:56:28;4.35;;;1.40;;
65469;SDS011;52067;50.710;14.492;2023-03-24T15:59:05;2.05;;;1.00;;
65469;SDS011;52067;50.710;14.492;2023-03-24T16:01:37;1.27;;;1.00;;
65469;SDS011;52067;50.710;14.492;2023-03-24T16:04:06;3.75;;;1.20;;
65469;SDS011;52067;50.710;14.492;2023-03-24T16:06:35;2.72;;;1.27;;
65469;SDS011;52067;50.710;14.492;2023-03-24T16:09:07;1.90;;;1.10;;
65469;SDS011;52067;50.710;14.492;2023-03-24T16:11:37;1.08;;;0.93;;
65469;SDS011;52067;50.710;14.492;2023-03-24T16:14:10;4.15;;;1.70;;
65469;SDS011;52067;50.710;14.492;2023-03-24T16:16:53;4.30;;;1.67;;
65469;SDS011;52067;50.710;14.492;2023-03-24T16:19:20;5.80;;;2.70;;
65469;SDS011;52067;50.710;14.492;2023-03-24T16:21:46;4.80;;;2.40;;
65469;SDS011;52067;50.710;14.492;2023-03-24T16:24:11;4.28;;;1.50;;
65469;SDS011;52067;50.710;14.492;2023-03-24T16:26:37;5.07;;;1.35;;
65469;SDS011;52067;50.710;14.492;2023-03-24T16:31:37;1.45;;;1.20;;
65469;SDS011;52067;50.710;14.492;2023-03-24T16:34:02;3.97;;;1.10;;
65469;SDS011;52067;50.710;14.492;2023-03-24T16:36:28;1.48;;;1.10;;
65469;SDS011;52067;50.710;14.492;2023-03-24T16:38:54;4.07;;;1.90;;
65469;SDS011;52067;50.710;14.492;2023-03-24T16:41:21;1.15;;;1.05;;
65469;SDS011;52067;50.710;14.492;2023-03-24T16:43:47;3.10;;;1.60;;
65469;SDS011;52067;50.710;14.492;2023-03-24T16:46:14;4.75;;;2.03;;
65469;SDS011;52067;50.710;14.492;2023-03-24T16:48:41;4.30;;;2.03;;
65469;SDS011;52067;50.710;14.492;2023-03-24T16:51:14;4.32;;;2.20;;
65469;SDS011;52067;50.710;14.492;2023-03-24T16:53:40;2.97;;;1.65;;
65469;SDS011;52067;50.710;14.492;2023-03-24T16:56:07;4.47;;;2.17;;
65469;SDS011;52067;50.710;14.492;2023-03-24T16:58:33;4.13;;;1.92;;
65469;SDS011;52067;50.710;14.492;2023-03-24T17:00:59;4.70;;;1.73;;
65469;SDS011;52067;50.710;14.492;2023-03-24T17:03:25;4.68;;;2.20;;
65469;SDS011;52067;50.710;14.492;2023-03-24T17:05:53;4.07;;;2.20;;
65469;SDS011;52067;50.710;14.492;2023-03-24T17:08:20;4.95;;;1.75;;
65469;SDS011;52067;50.710;14.492;2023-03-24T17:10:46;3.30;;;1.90;;
65469;SDS011;52067;50.710;14.492;2023-03-24T17:13:18;5.22;;;2.85;;
65469;SDS011;52067;50.710;14.492;2023-03-24T17:15:48;3.30;;;2.00;;
65469;SDS011;52067;50.710;14.492;2023-03-24T17:18:15;16.60;;;7.97;;
65469;SDS011;52067;50.710;14.492;2023-03-24T17:20:41;35.63;;;16.70;;
65469;SDS011;52067;50.710;14.492;2023-03-24T17:23:07;31.20;;;14.48;;